Time;durP1;ratioP1;P1;durP2;ratioP2;P2;SDS_P1;SDS_P2;PMS_P1;PMS_P2;Temp;Humidity;BMP_temperature;BMP_pressure;BME280_temperature;BME280_humidity;BME280_pressure;Samples;Min_cycle;Max_cycle;Signal;HPM_P1;HPM_P2
2024/01/31 00:01:09;;;;;;;34.27;21.13;;;;;;;;;;5076527;28;20177;-66
2024/01/31 00:03:34;;;;;;;34.57;21.23;;;;;;;;;;5076264;28;20293;-67
2024/01/31 00:06:00;;;;;;;33.30;20.70;;;;;;;;;;5076299;28;20240;-66
2024/01/31 00:08:26;;;;;;;36.53;20.70;;;;;;;;;;5076556;28;20181;-65
2024/01/31 00:10:53;;;;;;;29.33;20.00;;;;;;;;;;5076051;28;20174;-67
2024/01/31 00:13:18;;;;;;;34.17;19.37;;;;;;;;;;5075539;28;20234;-67
2024/01/31 00:15:45;;;;;;;31.47;19.43;;;;;;;;;;5075883;28;20188;-66
2024/01/31 00:18:11;;;;;;;31.27;19.00;;;;;;;;;;5057579;28;20185;-66
2024/01/31 00:20:37;;;;;;;32.63;19.43;;;;;;;;;;5075681;28;20197;-68
2024/01/31 00:23:03;;;;;;;27.07;17.67;;;;;;;;;;5057387;28;20675;-66
2024/01/31 00:25:29;;;;;;;32.10;17.20;;;;;;;;;;5075556;28;20260;-66
2024/01/31 00:27:55;;;;;;;31.63;15.70;;;;;;;;;;5057632;28;20180;-67
2024/01/31 00:30:21;;;;;;;30.47;17.90;;;;;;;;;;5075846;28;20185;-67
2024/01/31 00:32:47;;;;;;;26.60;16.77;;;;;;;;;;5075198;28;20212;-67
2024/01/31 00:35:13;;;;;;;27.90;15.53;;;;;;;;;;5075260;28;20178;-67
2024/01/31 00:37:39;;;;;;;24.23;15.33;;;;;;;;;;5075435;28;20604;-66
2024/01/31 00:40:05;;;;;;;29.70;16.30;;;;;;;;;;5057668;28;20252;-65
2024/01/31 00:42:32;;;;;;;24.07;13.80;;;;;;;;;;5076031;28;20202;-65
2024/01/31 00:44:58;;;;;;;27.67;13.97;;;;;;;;;;5057180;28;20187;-66
2024/01/31 00:47:23;;;;;;;22.07;12.90;;;;;;;;;;5075036;28;20251;-66
2024/01/31 00:49:49;;;;;;;24.87;13.87;;;;;;;;;;5075156;28;20178;-66
2024/01/31 00:52:17;;;;;;;22.90;13.30;;;;;;;;;;5057147;28;20193;-67
2024/01/31 00:54:43;;;;;;;20.07;13.17;;;;;;;;;;5056937;28;20658;-67
2024/01/31 00:57:09;;;;;;;25.60;12.60;;;;;;;;;;5074779;28;20174;-68
2024/01/31 00:59:35;;;;;;;28.87;12.87;;;;;;;;;;5074911;28;20174;-65
2024/01/31 01:02:01;;;;;;;20.10;12.03;;;;;;;;;;5056710;28;20335;-66
2024/01/31 01:04:26;;;;;;;21.33;11.10;;;;;;;;;;5074661;28;20253;-66
2024/01/31 01:06:52;;;;;;;23.83;11.47;;;;;;;;;;5074683;28;20244;-67
2024/01/31 01:09:18;;;;;;;20.87;10.27;;;;;;;;;;5074896;28;20171;-67
2024/01/31 01:11:44;;;;;;;21.83;11.10;;;;;;;;;;5074671;28;20177;-67
2024/01/31 01:14:10;;;;;;;18.40;10.80;;;;;;;;;;5074798;28;20620;-66
2024/01/31 01:16:36;;;;;;;21.43;10.93;;;;;;;;;;5056734;28;20193;-66
2024/01/31 01:19:04;;;;;;;18.83;10.90;;;;;;;;;;5074516;28;20679;-67
2024/01/31 01:21:30;;;;;;;19.90;9.60;;;;;;;;;;5074664;28;20170;-67
2024/01/31 01:23:56;;;;;;;17.50;9.73;;;;;;;;;;5074401;28;20205;-67
2024/01/31 01:26:22;;;;;;;18.40;10.60;;;;;;;;;;5074395;28;20201;-67
2024/01/31 01:28:48;;;;;;;18.00;9.97;;;;;;;;;;5074310;28;20261;-67
2024/01/31 01:31:14;;;;;;;20.90;10.20;;;;;;;;;;5074071;28;20190;-67
2024/01/31 01:33:40;;;;;;;21.93;8.87;;;;;;;;;;5074405;28;20300;-67
2024/01/31 01:36:06;;;;;;;19.93;9.47;;;;;;;;;;5074346;28;20182;-68
2024/01/31 01:38:32;;;;;;;19.80;9.60;;;;;;;;;;5074054;28;20189;-65
2024/01/31 01:40:58;;;;;;;18.67;8.50;;;;;;;;;;5074107;28;20182;-66
2024/01/31 01:43:24;;;;;;;15.70;7.90;;;;;;;;;;5074003;28;20682;-67
2024/01/31 01:45:56;;;;;;;19.93;8.70;;;;;;;;;;5073753;28;20227;-67
2024/01/31 01:48:22;;;;;;;17.80;8.37;;;;;;;;;;5056039;28;20177;-67
2024/01/31 01:50:48;;;;;;;19.00;8.80;;;;;;;;;;5074008;28;20575;-67
2024/01/31 01:53:14;;;;;;;18.10;8.00;;;;;;;;;;5074272;28;20229;-68
2024/01/31 01:55:41;;;;;;;18.97;7.97;;;;;;;;;;5056415;28;20185;-68
2024/01/31 01:58:07;;;;;;;13.77;7.70;;;;;;;;;;5074460;28;20209;-67
2024/01/31 02:00:34;;;;;;;19.47;8.23;;;;;;;;;;5074594;28;20185;-68
2024/01/31 02:03:01;;;;;;;16.93;8.20;;;;;;;;;;5074176;28;20655;-67
2024/01/31 02:05:28;;;;;;;9.90;6.50;;;;;;;;;;5057061;28;20186;-66
2024/01/31 02:07:55;;;;;;;15.93;7.47;;;;;;;;;;5074803;28;20602;-67
2024/01/31 02:10:22;;;;;;;14.30;6.43;;;;;;;;;;5075464;28;20185;-65
2024/01/31 02:12:48;;;;;;;14.53;7.33;;;;;;;;;;5057178;28;20200;-65
2024/01/31 02:15:14;;;;;;;14.60;7.60;;;;;;;;;;5074908;28;20710;-66
2024/01/31 02:17:40;;;;;;;13.30;6.97;;;;;;;;;;5057340;28;20276;-66
2024/01/31 02:20:06;;;;;;;12.70;6.40;;;;;;;;;;5075439;28;20178;-65
2024/01/31 02:22:32;;;;;;;11.93;6.13;;;;;;;;;;5075007;28;20204;-67
2024/01/31 02:24:59;;;;;;;16.00;6.57;;;;;;;;;;5074656;28;20173;-65
2024/01/31 02:27:25;;;;;;;13.97;6.60;;;;;;;;;;5075313;28;20196;-65
2024/01/31 02:29:51;;;;;;;9.37;5.73;;;;;;;;;;5074558;28;20174;-65
2024/01/31 02:32:17;;;;;;;15.80;6.17;;;;;;;;;;5074779;28;20198;-66
2024/01/31 02:34:43;;;;;;;12.97;6.07;;;;;;;;;;5074661;28;20181;-65
2024/01/31 02:37:09;;;;;;;14.87;6.27;;;;;;;;;;5074371;28;20218;-67
2024/01/31 02:39:35;;;;;;;9.87;6.10;;;;;;;;;;5074385;28;20178;-67
2024/01/31 02:42:01;;;;;;;19.17;6.27;;;;;;;;;;5074705;28;20280;-66
2024/01/31 02:44:27;;;;;;;13.03;6.23;;;;;;;;;;5074188;28;20177;-66
2024/01/31 02:46:53;;;;;;;16.37;5.90;;;;;;;;;;5074297;28;20213;-66
2024/01/31 02:49:19;;;;;;;12.97;5.80;;;;;;;;;;5073988;28;20173;-66
2024/01/31 02:51:45;;;;;;;14.40;5.20;;;;;;;;;;5073798;28;20257;-64
2024/01/31 02:54:11;;;;;;;12.00;5.67;;;;;;;;;;5073864;28;20184;-66
2024/01/31 02:56:37;;;;;;;10.57;5.67;;;;;;;;;;5073773;28;20639;-65
2024/01/31 02:59:03;;;;;;;9.60;5.90;;;;;;;;;;5073151;28;20193;-67
2024/01/31 03:01:29;;;;;;;14.00;5.83;;;;;;;;;;5055378;28;20183;-66
2024/01/31 03:03:55;;;;;;;11.63;5.93;;;;;;;;;;5073127;28;20224;-66
2024/01/31 03:06:21;;;;;;;13.80;6.57;;;;;;;;;;5073128;28;20251;-65
2024/01/31 03:08:47;;;;;;;9.00;5.77;;;;;;;;;;5055763;28;20181;-65
2024/01/31 03:11:13;;;;;;;11.90;5.80;;;;;;;;;;5055842;28;20609;-65
2024/01/31 03:13:39;;;;;;;13.03;5.60;;;;;;;;;;5073337;28;20201;-67
2024/01/31 03:16:05;;;;;;;10.07;5.60;;;;;;;;;;5055182;28;20584;-67
2024/01/31 03:18:31;;;;;;;11.30;6.10;;;;;;;;;;5073036;28;20682;-67
2024/01/31 03:20:57;;;;;;;12.63;5.67;;;;;;;;;;5055498;28;20577;-65
2024/01/31 03:23:23;;;;;;;8.43;5.03;;;;;;;;;;5055041;28;20641;-66
2024/01/31 03:25:50;;;;;;;14.83;6.50;;;;;;;;;;5073088;28;20204;-67
2024/01/31 03:28:16;;;;;;;11.80;6.23;;;;;;;;;;5072921;28;20166;-67
2024/01/31 03:30:42;;;;;;;11.63;6.10;;;;;;;;;;5055134;28;20677;-67
2024/01/31 03:33:08;;;;;;;13.63;6.23;;;;;;;;;;5072471;28;20210;-67
2024/01/31 03:35:35;;;;;;;11.93;6.17;;;;;;;;;;5072739;28;20170;-65
2024/01/31 03:38:01;;;;;;;11.07;5.73;;;;;;;;;;5072761;28;20178;-65
2024/01/31 03:40:27;;;;;;;10.17;5.73;;;;;;;;;;5072618;28;20197;-67
2024/01/31 03:42:53;;;;;;;12.63;6.33;;;;;;;;;;5054076;28;20201;-66
2024/01/31 03:45:19;;;;;;;11.37;6.10;;;;;;;;;;5072199;28;20655;-65
2024/01/31 03:47:45;;;;;;;14.80;6.53;;;;;;;;;;5072213;28;20220;-67
2024/01/31 03:50:11;;;;;;;17.70;6.33;;;;;;;;;;5072673;28;20174;-67
2024/01/31 03:52:37;;;;;;;9.73;5.80;;;;;;;;;;5072083;28;20239;-66
2024/01/31 03:55:04;;;;;;;12.37;5.80;;;;;;;;;;5054144;28;20235;-67
2024/01/31 03:57:30;;;;;;;14.77;7.50;;;;;;;;;;5072438;28;20174;-64
2024/01/31 04:00:03;;;;;;;12.20;6.57;;;;;;;;;;5072753;28;20616;-67
2024/01/31 04:02:29;;;;;;;12.13;6.27;;;;;;;;;;5072312;28;20296;-66
2024/01/31 04:04:55;;;;;;;15.83;7.20;;;;;;;;;;5072352;28;20185;-66
2024/01/31 04:07:21;;;;;;;16.53;6.83;;;;;;;;;;5072985;28;20230;-65
2024/01/31 04:09:47;;;;;;;14.43;6.70;;;;;;;;;;5072921;28;20588;-68
2024/01/31 04:12:13;;;;;;;11.10;6.33;;;;;;;;;;5074431;28;20194;-67
2024/01/31 04:14:39;;;;;;;16.87;6.80;;;;;;;;;;5075909;28;20177;-66
2024/01/31 04:17:05;;;;;;;14.30;6.43;;;;;;;;;;5075693;28;20205;-66
2024/01/31 04:19:31;;;;;;;9.20;6.13;;;;;;;;;;5075506;28;20181;-67
2024/01/31 04:21:57;;;;;;;11.83;6.57;;;;;;;;;;5075355;28;20188;-65
2024/01/31 04:24:23;;;;;;;13.13;6.73;;;;;;;;;;5057527;28;20483;-67
2024/01/31 04:26:49;;;;;;;13.83;6.23;;;;;;;;;;5075472;28;20671;-67
2024/01/31 04:29:15;;;;;;;16.30;6.27;;;;;;;;;;5076620;28;20170;-67
2024/01/31 04:31:41;;;;;;;11.97;6.60;;;;;;;;;;5075808;28;20720;-68
2024/01/31 04:34:07;;;;;;;15.40;6.47;;;;;;;;;;5075357;28;20260;-67
2024/01/31 04:36:33;;;;;;;10.07;5.93;;;;;;;;;;5075745;28;20173;-67
2024/01/31 04:39:00;;;;;;;12.23;6.17;;;;;;;;;;5075408;28;20269;-66
2024/01/31 04:41:27;;;;;;;12.37;6.60;;;;;;;;;;5075621;28;20180;-65
2024/01/31 04:43:53;;;;;;;12.27;6.60;;;;;;;;;;5075076;28;20201;-68
2024/01/31 04:46:19;;;;;;;15.57;6.47;;;;;;;;;;5075102;28;20655;-66
2024/01/31 04:48:46;;;;;;;9.80;6.07;;;;;;;;;;5075192;28;20260;-67
2024/01/31 04:51:12;;;;;;;16.23;6.47;;;;;;;;;;5075229;28;20169;-67
2024/01/31 04:53:38;;;;;;;14.43;6.70;;;;;;;;;;5057190;28;20200;-66
2024/01/31 04:56:08;;;;;;;12.27;6.20;;;;;;;;;;5075901;28;20563;-69
2024/01/31 04:58:34;;;;;;;16.00;7.23;;;;;;;;;;5076032;28;20181;-67
2024/01/31 05:01:00;;;;;;;15.20;7.00;;;;;;;;;;5075345;28;20182;-66
2024/01/31 05:03:26;;;;;;;13.67;6.07;;;;;;;;;;5081000;22;20221;-71
2024/01/31 05:05:52;;;;;;;12.57;6.70;;;;;;;;;;5076108;28;20289;-72
2024/01/31 05:08:17;;;;;;;13.07;6.10;;;;;;;;;;5057683;28;20678;-71
2024/01/31 05:10:45;;;;;;;11.90;5.93;;;;;;;;;;5075418;28;20182;-71
2024/01/31 05:13:12;;;;;;;9.47;6.07;;;;;;;;;;5075235;28;20194;-72
2024/01/31 05:15:38;;;;;;;10.73;6.53;;;;;;;;;;5075227;28;20185;-71
2024/01/31 05:18:04;;;;;;;19.17;6.97;;;;;;;;;;5057216;28;20268;-71
2024/01/31 05:20:30;;;;;;;10.57;6.57;;;;;;;;;;5057148;28;20229;-72
2024/01/31 05:22:56;;;;;;;9.83;5.57;;;;;;;;;;5056908;28;20178;-72
2024/01/31 05:25:22;;;;;;;15.73;6.50;;;;;;;;;;5075469;28;20249;-71
2024/01/31 05:27:49;;;;;;;9.93;6.00;;;;;;;;;;5075108;28;20339;-71
2024/01/31 05:30:15;;;;;;;10.00;6.60;;;;;;;;;;5074868;28;20273;-71
2024/01/31 05:32:41;;;;;;;10.57;6.17;;;;;;;;;;5075005;28;20655;-71
2024/01/31 05:35:07;;;;;;;15.20;6.40;;;;;;;;;;5056862;28;20197;-72
2024/01/31 05:37:33;;;;;;;9.27;6.23;;;;;;;;;;5074937;28;20626;-71
2024/01/31 05:39:59;;;;;;;15.60;6.33;;;;;;;;;;5074741;28;20182;-71
2024/01/31 05:42:25;;;;;;;9.67;6.50;;;;;;;;;;5074597;28;20200;-71
2024/01/31 05:44:53;;;;;;;12.23;6.27;;;;;;;;;;5074577;28;20206;-71
2024/01/31 05:47:19;;;;;;;11.90;6.47;;;;;;;;;;5056962;28;20217;-71
2024/01/31 05:49:45;;;;;;;11.90;6.50;;;;;;;;;;5075200;28;20174;-71
2024/01/31 05:52:11;;;;;;;12.47;6.23;;;;;;;;;;5056555;28;20665;-71
2024/01/31 05:54:39;;;;;;;12.37;6.43;;;;;;;;;;5074391;28;20198;-71
2024/01/31 05:57:05;;;;;;;15.90;7.03;;;;;;;;;;5074451;28;20182;-71
2024/01/31 05:59:30;;;;;;;11.67;6.77;;;;;;;;;;5074379;28;20555;-71
2024/01/31 06:01:56;;;;;;;15.23;7.47;;;;;;;;;;5056328;28;20184;-71
2024/01/31 06:04:22;;;;;;;13.00;6.30;;;;;;;;;;5056390;28;20225;-71
2024/01/31 06:06:49;;;;;;;12.83;6.80;;;;;;;;;;5074729;28;20660;-71
2024/01/31 06:09:15;;;;;;;12.93;6.70;;;;;;;;;;5074184;28;20193;-71
2024/01/31 06:11:40;;;;;;;17.90;7.13;;;;;;;;;;5074135;28;20177;-71
2024/01/31 06:14:06;;;;;;;10.10;6.43;;;;;;;;;;5056251;28;20255;-71
2024/01/31 06:16:33;;;;;;;9.43;6.53;;;;;;;;;;5074170;28;20181;-71
2024/01/31 06:19:00;;;;;;;15.40;6.43;;;;;;;;;;5056251;28;20693;-71
2024/01/31 06:21:26;;;;;;;13.80;6.13;;;;;;;;;;5056391;28;20205;-71
2024/01/31 06:23:52;;;;;;;11.00;5.97;;;;;;;;;;5056270;28;20236;-71
2024/01/31 06:26:18;;;;;;;14.00;6.03;;;;;;;;;;5074561;28;20198;-71
2024/01/31 06:28:45;;;;;;;11.90;6.30;;;;;;;;;;5074548;28;20177;-71
2024/01/31 06:31:24;;;;;;;14.07;6.23;;;;;;;;;;5057293;28;20174;-71
2024/01/31 06:33:50;;;;;;;10.17;5.70;;;;;;;;;;5076799;28;20205;-71
2024/01/31 06:36:18;;;;;;;12.30;6.20;;;;;;;;;;5082087;28;20182;-71
2024/01/31 06:38:44;;;;;;;11.57;6.53;;;;;;;;;;5064716;28;20284;-71
2024/01/31 06:41:12;;;;;;;14.50;5.57;;;;;;;;;;5062878;28;20225;-71
2024/01/31 06:43:38;;;;;;;10.17;6.13;;;;;;;;;;5076495;28;20193;-71
2024/01/31 06:46:04;;;;;;;10.57;5.97;;;;;;;;;;5058643;28;20206;-71
2024/01/31 06:48:30;;;;;;;11.43;5.77;;;;;;;;;;5075510;28;20178;-71
2024/01/31 06:50:56;;;;;;;10.50;5.90;;;;;;;;;;5074199;28;20196;-71
2024/01/31 06:53:22;;;;;;;10.37;6.00;;;;;;;;;;5073987;28;20643;-71
2024/01/31 06:55:48;;;;;;;15.67;5.83;;;;;;;;;;5073823;28;20185;-71
2024/01/31 06:58:14;;;;;;;9.43;5.87;;;;;;;;;;5073547;28;20177;-71
2024/01/31 07:00:40;;;;;;;11.90;5.73;;;;;;;;;;5055592;28;20561;-71
2024/01/31 07:03:06;;;;;;;12.40;5.87;;;;;;;;;;5073443;28;20231;-71
2024/01/31 07:05:32;;;;;;;9.53;5.20;;;;;;;;;;5074058;28;20159;-71
2024/01/31 07:07:58;;;;;;;12.00;5.77;;;;;;;;;;5073574;28;20174;-71
2024/01/31 07:10:24;;;;;;;12.90;5.60;;;;;;;;;;5073079;28;20250;-71
2024/01/31 07:12:52;;;;;;;12.07;7.70;;;;;;;;;;5055234;28;20420;-71
2024/01/31 07:15:18;;;;;;;11.50;6.60;;;;;;;;;;5073298;28;20173;-71
2024/01/31 07:17:44;;;;;;;9.77;6.60;;;;;;;;;;5073616;28;20260;-71
2024/01/31 07:20:11;;;;;;;12.93;5.63;;;;;;;;;;5055258;28;20185;-71
2024/01/31 07:22:36;;;;;;;10.40;5.90;;;;;;;;;;5055259;28;20220;-71
2024/01/31 07:25:03;;;;;;;14.37;6.30;;;;;;;;;;5055096;28;20229;-70
2024/01/31 07:27:29;;;;;;;10.03;5.93;;;;;;;;;;5073236;28;20220;-71
2024/01/31 07:29:55;;;;;;;10.07;5.60;;;;;;;;;;5073716;28;20174;-71
2024/01/31 07:32:21;;;;;;;8.13;5.63;;;;;;;;;;5073062;28;20181;-71
2024/01/31 07:34:47;;;;;;;11.80;6.23;;;;;;;;;;5054967;28;20198;-71
2024/01/31 07:37:13;;;;;;;11.40;6.50;;;;;;;;;;5055064;28;20566;-71
2024/01/31 07:39:39;;;;;;;11.60;6.03;;;;;;;;;;5073170;28;20546;-71
2024/01/31 07:42:05;;;;;;;15.83;6.03;;;;;;;;;;5054931;28;20182;-71
2024/01/31 07:44:31;;;;;;;14.43;6.80;;;;;;;;;;5072743;28;20198;-71
2024/01/31 07:47:02;;;;;;;12.17;6.50;;;;;;;;;;5076746;28;20246;-71
2024/01/31 07:49:28;;;;;;;10.90;6.63;;;;;;;;;;5058627;28;20177;-71
2024/01/31 07:51:56;;;;;;;12.40;7.03;;;;;;;;;;5058783;28;20199;-71
2024/01/31 07:54:22;;;;;;;10.73;6.17;;;;;;;;;;5076863;28;20541;-71
2024/01/31 07:56:48;;;;;;;14.73;6.77;;;;;;;;;;5076744;28;20188;-71
2024/01/31 07:59:14;;;;;;;15.70;7.33;;;;;;;;;;5076804;28;20184;-71
2024/01/31 08:01:40;;;;;;;17.23;7.90;;;;;;;;;;5058746;28;20185;-71
2024/01/31 08:04:07;;;;;;;10.00;7.43;;;;;;;;;;5058255;28;20244;-71
2024/01/31 08:06:33;;;;;;;10.80;7.07;;;;;;;;;;5076603;28;20190;-71
2024/01/31 08:08:59;;;;;;;38.47;19.20;;;;;;;;;;5058368;28;20182;-71
2024/01/31 08:11:25;;;;;;;13.80;9.20;;;;;;;;;;5058339;28;20221;-71
2024/01/31 08:13:51;;;;;;;20.53;10.30;;;;;;;;;;5076527;28;20194;-71
2024/01/31 08:16:17;;;;;;;15.07;7.67;;;;;;;;;;5058194;28;20182;-71
2024/01/31 08:18:43;;;;;;;12.17;7.63;;;;;;;;;;5076299;28;20181;-71
2024/01/31 08:21:09;;;;;;;13.00;6.33;;;;;;;;;;5058295;28;20643;-71
2024/01/31 08:23:35;;;;;;;12.10;7.80;;;;;;;;;;5058256;28;20202;-71
2024/01/31 08:26:01;;;;;;;11.00;7.30;;;;;;;;;;5058098;28;20576;-71
2024/01/31 08:28:27;;;;;;;9.33;6.67;;;;;;;;;;5058261;28;20177;-70
2024/01/31 08:30:53;;;;;;;15.83;7.00;;;;;;;;;;5058354;28;20667;-72
2024/01/31 08:33:19;;;;;;;10.70;5.93;;;;;;;;;;5076416;28;20806;-71
2024/01/31 08:35:45;;;;;;;11.23;6.60;;;;;;;;;;5058331;28;20655;-69
2024/01/31 08:38:10;;;;;;;11.70;6.17;;;;;;;;;;5075886;28;20186;-72
2024/01/31 08:40:36;;;;;;;13.10;5.77;;;;;;;;;;5076101;28;20224;-72
2024/01/31 08:43:02;;;;;;;18.13;6.50;;;;;;;;;;5057945;28;20177;-71
2024/01/31 08:45:28;;;;;;;9.70;5.67;;;;;;;;;;5076019;28;20209;-71
2024/01/31 08:47:54;;;;;;;13.33;6.13;;;;;;;;;;5057996;28;20255;-71
2024/01/31 08:50:20;;;;;;;9.10;5.37;;;;;;;;;;5075726;28;20231;-71
2024/01/31 08:52:46;;;;;;;11.70;6.30;;;;;;;;;;5075820;28;20184;-71
2024/01/31 08:55:13;;;;;;;10.70;6.30;;;;;;;;;;5075392;28;20197;-71
2024/01/31 08:57:39;;;;;;;9.23;6.53;;;;;;;;;;5056481;28;20181;-71
2024/01/31 09:00:06;;;;;;;12.27;5.33;;;;;;;;;;5075581;28;20562;-71
2024/01/31 09:02:32;;;;;;;8.70;5.80;;;;;;;;;;5075252;28;20185;-71
2024/01/31 09:04:59;;;;;;;11.10;5.93;;;;;;;;;;5057378;28;20209;-71
2024/01/31 09:07:25;;;;;;;12.10;6.80;;;;;;;;;;5057236;28;20272;-71
2024/01/31 09:09:51;;;;;;;7.87;5.27;;;;;;;;;;5057387;28;20679;-71
2024/01/31 09:12:17;;;;;;;8.10;5.63;;;;;;;;;;5075779;28;20166;-72
2024/01/31 09:14:43;;;;;;;10.30;6.00;;;;;;;;;;5075275;28;20651;-71
2024/01/31 09:17:09;;;;;;;11.53;6.03;;;;;;;;;;5057332;28;20280;-71
2024/01/31 09:19:35;;;;;;;11.10;5.63;;;;;;;;;;5057162;28;20209;-71
2024/01/31 09:22:00;;;;;;;14.30;5.87;;;;;;;;;;5075083;28;20244;-71
2024/01/31 09:24:26;;;;;;;6.93;5.53;;;;;;;;;;5057111;28;20228;-71
2024/01/31 09:26:52;;;;;;;9.40;5.07;;;;;;;;;;5074686;28;20202;-71
2024/01/31 09:29:18;;;;;;;8.20;5.03;;;;;;;;;;5056899;28;20173;-71
2024/01/31 09:31:44;;;;;;;9.33;4.70;;;;;;;;;;5075502;28;20178;-71
2024/01/31 09:34:10;;;;;;;10.13;5.30;;;;;;;;;;5075023;28;20611;-71
2024/01/31 09:36:36;;;;;;;6.87;5.00;;;;;;;;;;5075703;28;20628;-71
2024/01/31 09:39:03;;;;;;;8.70;5.23;;;;;;;;;;5075020;28;20593;-71
2024/01/31 09:41:29;;;;;;;7.63;4.77;;;;;;;;;;5074922;28;20178;-70
2024/01/31 09:43:55;;;;;;;8.13;5.20;;;;;;;;;;5074745;28;20198;-71
2024/01/31 09:46:22;;;;;;;7.23;5.80;;;;;;;;;;5074939;28;20202;-71
2024/01/31 09:48:48;;;;;;;9.83;5.30;;;;;;;;;;5075156;28;20178;-71
2024/01/31 09:51:14;;;;;;;9.17;5.40;;;;;;;;;;5056891;28;20184;-71
2024/01/31 09:53:41;;;;;;;10.47;5.60;;;;;;;;;;5056603;28;20217;-71
2024/01/31 09:56:07;;;;;;;10.60;4.93;;;;;;;;;;5075205;28;20242;-71
2024/01/31 09:58:33;;;;;;;10.53;6.03;;;;;;;;;;5056673;28;20185;-71
2024/01/31 10:01:03;;;;;;;7.20;4.83;;;;;;;;;;5074519;28;20178;-71
2024/01/31 10:03:29;;;;;;;10.60;4.93;;;;;;;;;;5074353;28;20757;-71
2024/01/31 10:05:55;;;;;;;8.40;5.50;;;;;;;;;;5074618;28;20178;-71
2024/01/31 10:08:21;;;;;;;10.27;5.07;;;;;;;;;;5055729;28;20182;-71
2024/01/31 10:10:48;;;;;;;7.93;4.93;;;;;;;;;;5055868;28;20220;-71
2024/01/31 10:13:14;;;;;;;11.33;5.27;;;;;;;;;;5074274;28;20186;-71
2024/01/31 10:15:40;;;;;;;10.53;5.17;;;;;;;;;;5056464;28;20178;-71
2024/01/31 10:18:06;;;;;;;11.37;5.50;;;;;;;;;;5074236;28;20178;-71
2024/01/31 10:20:32;;;;;;;12.03;5.80;;;;;;;;;;5056299;28;20192;-71
2024/01/31 10:22:59;;;;;;;13.27;6.73;;;;;;;;;;5055823;28;20169;-71
2024/01/31 10:25:26;;;;;;;12.07;6.70;;;;;;;;;;5056306;28;20209;-71
2024/01/31 10:27:52;;;;;;;14.93;6.67;;;;;;;;;;5073887;28;20201;-71
2024/01/31 10:30:18;;;;;;;13.10;8.03;;;;;;;;;;5055974;28;20173;-71
2024/01/31 10:32:46;;;;;;;10.40;6.40;;;;;;;;;;5073760;28;20670;-71
2024/01/31 10:35:13;;;;;;;12.73;6.20;;;;;;;;;;5073724;28;20197;-72
2024/01/31 10:37:39;;;;;;;9.27;5.93;;;;;;;;;;5055655;28;20727;-71
2024/01/31 10:40:12;;;;;;;11.07;6.47;;;;;;;;;;5073731;28;20199;-71
2024/01/31 10:42:38;;;;;;;8.77;5.57;;;;;;;;;;5056338;28;20185;-71
2024/01/31 10:45:05;;;;;;;12.63;6.93;;;;;;;;;;5073685;28;20263;-71
2024/01/31 10:47:32;;;;;;;9.57;6.40;;;;;;;;;;5073562;28;20202;-71
2024/01/31 10:49:58;;;;;;;12.10;6.90;;;;;;;;;;5055654;28;20261;-71
2024/01/31 10:52:27;;;;;;;14.67;7.50;;;;;;;;;;5055614;28;20169;-71
2024/01/31 10:54:56;;;;;;;10.33;7.27;;;;;;;;;;5055718;28;20202;-71
2024/01/31 10:57:22;;;;;;;14.60;7.13;;;;;;;;;;5055398;28;20192;-71
2024/01/31 10:59:52;;;;;;;10.90;7.07;;;;;;;;;;5073919;28;20182;-71
2024/01/31 11:02:19;;;;;;;12.17;6.87;;;;;;;;;;5073801;28;20244;-71
2024/01/31 11:04:45;;;;;;;12.20;6.73;;;;;;;;;;5073088;28;20221;-71
2024/01/31 11:07:20;;;;;;;11.70;6.90;;;;;;;;;;5073448;28;20246;-71
2024/01/31 11:09:47;;;;;;;12.57;7.77;;;;;;;;;;5055154;28;20181;-71
2024/01/31 11:12:14;;;;;;;15.03;6.73;;;;;;;;;;5073311;28;20212;-71
2024/01/31 11:14:41;;;;;;;14.63;8.30;;;;;;;;;;5073090;28;20196;-70
2024/01/31 11:17:13;;;;;;;15.93;8.23;;;;;;;;;;5054997;28;20178;-73
2024/01/31 11:19:48;;;;;;;16.07;9.90;;;;;;;;;;5072988;28;20178;-70
2024/01/31 11:22:14;;;;;;;17.23;10.83;;;;;;;;;;5073405;28;20212;-71
2024/01/31 11:24:44;;;;;;;20.30;10.63;;;;;;;;;;5073125;28;20221;-71
2024/01/31 11:27:10;;;;;;;19.23;10.87;;;;;;;;;;5073211;28;20205;-70
2024/01/31 11:29:36;;;;;;;19.77;11.20;;;;;;;;;;5096971;22;20716;-67
2024/01/31 11:32:03;;;;;;;15.57;10.50;;;;;;;;;;5054415;28;20185;-67
2024/01/31 11:34:29;;;;;;;16.70;10.80;;;;;;;;;;5054173;28;20189;-67
2024/01/31 11:36:54;;;;;;;15.87;11.13;;;;;;;;;;5054032;28;20181;-66
2024/01/31 11:39:20;;;;;;;17.73;10.67;;;;;;;;;;5071737;28;20205;-66
2024/01/31 11:41:46;;;;;;;19.07;10.83;;;;;;;;;;5072090;28;20186;-67
2024/01/31 11:44:12;;;;;;;19.27;11.53;;;;;;;;;;5053770;28;20572;-66
2024/01/31 11:46:38;;;;;;;19.90;12.23;;;;;;;;;;5071762;28;20212;-67
2024/01/31 11:49:05;;;;;;;15.87;11.13;;;;;;;;;;5053986;28;20244;-67
2024/01/31 11:51:31;;;;;;;20.47;12.13;;;;;;;;;;5053888;28;20181;-66
2024/01/31 11:53:57;;;;;;;21.77;13.03;;;;;;;;;;5054114;28;20181;-67
2024/01/31 11:56:23;;;;;;;21.23;12.37;;;;;;;;;;5072387;28;20676;-68
2024/01/31 11:58:51;;;;;;;20.40;11.67;;;;;;;;;;5053683;28;20575;-67
2024/01/31 12:01:16;;;;;;;19.43;12.50;;;;;;;;;;5071877;28;20197;-67
2024/01/31 12:03:43;;;;;;;25.03;13.30;;;;;;;;;;5071887;28;20639;-66
2024/01/31 12:06:09;;;;;;;19.57;12.67;;;;;;;;;;5053717;28;20209;-67
2024/01/31 12:08:37;;;;;;;19.97;12.73;;;;;;;;;;5071722;28;20194;-67
2024/01/31 12:11:03;;;;;;;22.30;12.80;;;;;;;;;;5054025;28;20182;-67
2024/01/31 12:13:29;;;;;;;22.47;13.13;;;;;;;;;;5071799;28;20181;-68
2024/01/31 12:15:56;;;;;;;22.17;12.07;;;;;;;;;;5071677;28;20592;-67
2024/01/31 12:18:22;;;;;;;19.07;12.87;;;;;;;;;;5071585;28;20190;-66
2024/01/31 12:20:48;;;;;;;21.10;12.93;;;;;;;;;;5072052;28;20170;-68
2024/01/31 12:23:14;;;;;;;20.20;12.73;;;;;;;;;;5071790;28;20262;-67
2024/01/31 12:25:40;;;;;;;20.00;12.30;;;;;;;;;;5053730;28;20212;-68
2024/01/31 12:28:06;;;;;;;18.10;11.47;;;;;;;;;;5071664;28;20593;-67
2024/01/31 12:30:32;;;;;;;19.60;12.10;;;;;;;;;;5072285;28;20605;-66
2024/01/31 12:32:59;;;;;;;25.80;12.70;;;;;;;;;;5056261;28;20173;-68
2024/01/31 12:35:25;;;;;;;19.63;12.23;;;;;;;;;;5057316;28;20268;-67
2024/01/31 12:37:51;;;;;;;16.77;11.93;;;;;;;;;;5056981;28;20221;-66
2024/01/31 12:40:17;;;;;;;19.13;11.40;;;;;;;;;;5075708;28;20186;-67
2024/01/31 12:42:43;;;;;;;19.77;12.33;;;;;;;;;;5056913;28;20177;-66
2024/01/31 12:45:09;;;;;;;15.87;11.87;;;;;;;;;;5056913;28;20182;-67
2024/01/31 12:47:35;;;;;;;17.23;11.60;;;;;;;;;;5075204;28;20205;-67
2024/01/31 12:50:01;;;;;;;18.67;12.20;;;;;;;;;;5075021;28;20574;-66
2024/01/31 12:52:27;;;;;;;15.37;11.00;;;;;;;;;;5074888;28;20617;-68
2024/01/31 12:54:53;;;;;;;17.00;11.10;;;;;;;;;;5075184;28;20176;-66
2024/01/31 12:57:19;;;;;;;18.27;12.17;;;;;;;;;;5075119;28;20243;-68
2024/01/31 12:59:49;;;;;;;16.83;11.63;;;;;;;;;;5057280;28;20209;-67
2024/01/31 13:02:15;;;;;;;17.53;11.57;;;;;;;;;;5056922;28;20174;-67
2024/01/31 13:04:41;;;;;;;15.43;10.20;;;;;;;;;;5075229;28;20174;-66
2024/01/31 13:07:08;;;;;;;13.30;10.70;;;;;;;;;;5057568;28;20205;-67
2024/01/31 13:09:34;;;;;;;14.53;10.97;;;;;;;;;;5057092;28;20194;-67
2024/01/31 13:12:00;;;;;;;15.87;11.40;;;;;;;;;;5075129;28;20176;-66
2024/01/31 13:14:26;;;;;;;17.17;11.77;;;;;;;;;;5075060;28;20253;-68
2024/01/31 13:16:52;;;;;;;19.83;12.03;;;;;;;;;;5075293;28;20189;-66
2024/01/31 13:19:20;;;;;;;16.60;11.67;;;;;;;;;;5075519;28;20721;-66
2024/01/31 13:21:49;;;;;;;16.53;12.00;;;;;;;;;;5057476;28;20235;-66
2024/01/31 13:24:15;;;;;;;16.30;11.53;;;;;;;;;;5075399;28;20227;-66
2024/01/31 13:26:41;;;;;;;17.40;11.80;;;;;;;;;;5074889;28;20206;-67
2024/01/31 13:29:07;;;;;;;20.77;11.97;;;;;;;;;;5074860;28;20219;-68
2024/01/31 13:31:33;;;;;;;18.43;13.63;;;;;;;;;;5075325;28;20231;-69
2024/01/31 13:33:59;;;;;;;17.73;12.33;;;;;;;;;;5074992;28;20694;-66
2024/01/31 13:36:27;;;;;;;18.53;12.00;;;;;;;;;;5074125;28;20200;-65
2024/01/31 13:38:53;;;;;;;17.17;12.90;;;;;;;;;;5073852;28;20322;-65
2024/01/31 13:41:22;;;;;;;17.77;12.67;;;;;;;;;;5056031;28;20185;-65
2024/01/31 13:43:48;;;;;;;20.23;13.53;;;;;;;;;;5055508;28;20182;-67
2024/01/31 13:46:14;;;;;;;19.40;13.37;;;;;;;;;;5073723;28;20627;-67
2024/01/31 13:48:40;;;;;;;17.83;12.00;;;;;;;;;;5055577;28;20339;-65
2024/01/31 13:51:06;;;;;;;15.93;12.53;;;;;;;;;;5073818;28;20182;-67
2024/01/31 13:53:32;;;;;;;17.33;12.70;;;;;;;;;;5073679;28;20177;-67
2024/01/31 13:55:58;;;;;;;17.23;12.67;;;;;;;;;;5056603;28;20666;-65
2024/01/31 13:58:24;;;;;;;16.33;12.20;;;;;;;;;;5057694;28;20726;-65
2024/01/31 14:00:50;;;;;;;16.43;11.63;;;;;;;;;;5074541;28;20173;-65
2024/01/31 14:03:16;;;;;;;16.13;11.73;;;;;;;;;;5074232;28;20274;-66
2024/01/31 14:05:42;;;;;;;16.63;11.40;;;;;;;;;;5074797;28;20322;-65
2024/01/31 14:08:08;;;;;;;14.27;11.27;;;;;;;;;;5074498;28;20213;-66
2024/01/31 14:10:34;;;;;;;18.90;11.73;;;;;;;;;;5075033;28;20252;-65
2024/01/31 14:13:00;;;;;;;16.97;11.30;;;;;;;;;;5074438;28;20174;-66
2024/01/31 14:15:26;;;;;;;14.63;11.40;;;;;;;;;;5074702;28;20205;-66
2024/01/31 14:17:52;;;;;;;11.63;9.73;;;;;;;;;;5074969;28;20203;-66
2024/01/31 14:20:18;;;;;;;12.83;9.83;;;;;;;;;;5074949;28;20716;-65
2024/01/31 14:22:44;;;;;;;11.10;9.10;;;;;;;;;;5075245;28;20182;-66